sensor_id;sensor_type;location;lat;lon;timestamp;pressure;altitude;pressure_sealevel;temperature;humidity
41040;BME280;48586;50.122;18.972;2023-04-26T00:01:48;97977.38;;;8.09;52.17
41040;BME280;48586;50.122;18.972;2023-04-26T00:03:53;97982.00;;;8.13;52.63
41040;BME280;48586;50.122;18.972;2023-04-26T00:05:58;97988.69;;;8.16;52.02
41040;BME280;48586;50.122;18.972;2023-04-26T00:08:04;97991.69;;;8.19;51.88
41040;BME280;48586;50.122;18.972;2023-04-26T00:10:10;97987.78;;;8.22;51.73
41040;BME280;48586;50.122;18.972;2023-04-26T00:12:18;97984.78;;;8.18;51.50
41040;BME280;48586;50.122;18.972;2023-04-26T00:14:24;97982.91;;;8.19;51.72
41040;BME280;48586;50.122;18.972;2023-04-26T00:16:28;97986.97;;;8.21;51.39
41040;BME280;48586;50.122;18.972;2023-04-26T00:18:33;97983.84;;;8.24;51.46
41040;BME280;48586;50.122;18.972;2023-04-26T00:20:37;97972.22;;;8.25;51.46
41040;BME280;48586;50.122;18.972;2023-04-26T00:22:43;97989.94;;;8.25;50.79
41040;BME280;48586;50.122;18.972;2023-04-26T00:24:48;97984.09;;;8.23;51.15
41040;BME280;48586;50.122;18.972;2023-04-26T00:26:53;97986.97;;;8.21;50.80
41040;BME280;48586;50.122;18.972;2023-04-26T00:29:00;97988.59;;;8.22;51.11
41040;BME280;48586;50.122;18.972;2023-04-26T00:31:06;97986.25;;;8.14;50.77
41040;BME280;48586;50.122;18.972;2023-04-26T00:33:10;97990.28;;;8.05;50.70
41040;BME280;48586;50.122;18.972;2023-04-26T00:35:14;97984.28;;;7.98;50.64
41040;BME280;48586;50.122;18.972;2023-04-26T00:37:19;97993.16;;;7.92;50.28
41040;BME280;48586;50.122;18.972;2023-04-26T00:39:23;97994.28;;;7.84;50.23
41040;BME280;48586;50.122;18.972;2023-04-26T00:41:27;97992.97;;;7.75;50.34
41040;BME280;48586;50.122;18.972;2023-04-26T00:43:32;97999.91;;;7.76;50.15
41040;BME280;48586;50.122;18.972;2023-04-26T00:45:39;97991.13;;;7.75;49.74
41040;BME280;48586;50.122;18.972;2023-04-26T00:47:45;97996.19;;;7.65;49.25
41040;BME280;48586;50.122;18.972;2023-04-26T00:49:51;97992.94;;;7.63;49.38
41040;BME280;48586;50.122;18.972;2023-04-26T00:51:56;97997.88;;;7.60;49.22
41040;BME280;48586;50.122;18.972;2023-04-26T00:54:01;98001.81;;;7.57;49.12
41040;BME280;48586;50.122;18.972;2023-04-26T00:56:08;98011.00;;;7.55;49.41
41040;BME280;48586;50.122;18.972;2023-04-26T00:58:12;98004.91;;;7.54;49.91
41040;BME280;48586;50.122;18.972;2023-04-26T01:00:19;98006.38;;;7.50;49.44
41040;BME280;48586;50.122;18.972;2023-04-26T01:02:27;98011.75;;;7.43;49.25
41040;BME280;48586;50.122;18.972;2023-04-26T01:04:31;98011.38;;;7.40;49.39
41040;BME280;48586;50.122;18.972;2023-04-26T01:06:37;98011.00;;;7.36;49.44
41040;BME280;48586;50.122;18.972;2023-04-26T01:08:43;98012.84;;;7.36;48.86
41040;BME280;48586;50.122;18.972;2023-04-26T01:10:48;98010.88;;;7.31;49.15
41040;BME280;48586;50.122;18.972;2023-04-26T01:12:53;98007.25;;;7.25;48.87
41040;BME280;48586;50.122;18.972;2023-04-26T01:14:59;98008.16;;;7.19;49.39
41040;BME280;48586;50.122;18.972;2023-04-26T01:17:03;98006.84;;;7.10;50.27
41040;BME280;48586;50.122;18.972;2023-04-26T01:19:10;98013.47;;;7.01;51.15
41040;BME280;48586;50.122;18.972;2023-04-26T01:21:18;98026.56;;;6.96;51.69
41040;BME280;48586;50.122;18.972;2023-04-26T01:23:26;98019.91;;;6.87;52.14
41040;BME280;48586;50.122;18.972;2023-04-26T01:25:30;98028.59;;;6.75;51.97
41040;BME280;48586;50.122;18.972;2023-04-26T01:27:36;98024.16;;;6.69;51.90
41040;BME280;48586;50.122;18.972;2023-04-26T01:29:42;98033.00;;;6.63;50.77
41040;BME280;48586;50.122;18.972;2023-04-26T01:31:47;98033.66;;;6.59;50.40
41040;BME280;48586;50.122;18.972;2023-04-26T01:33:53;98031.03;;;6.52;50.15
41040;BME280;48586;50.122;18.972;2023-04-26T01:35:57;98027.00;;;6.49;49.87
41040;BME280;48586;50.122;18.972;2023-04-26T01:38:01;98027.66;;;6.45;49.65
41040;BME280;48586;50.122;18.972;2023-04-26T01:40:09;98033.22;;;6.37;49.66
41040;BME280;48586;50.122;18.972;2023-04-26T01:42:14;98033.28;;;6.30;49.88
41040;BME280;48586;50.122;18.972;2023-04-26T01:44:18;98039.22;;;6.25;49.66
41040;BME280;48586;50.122;18.972;2023-04-26T01:46:23;98041.69;;;6.20;49.95
41040;BME280;48586;50.122;18.972;2023-04-26T01:48:27;98048.66;;;6.15;50.40
41040;BME280;48586;50.122;18.972;2023-04-26T01:50:31;98046.28;;;6.07;50.36
41040;BME280;48586;50.122;18.972;2023-04-26T01:52:36;98047.94;;;6.01;50.58
41040;BME280;48586;50.122;18.972;2023-04-26T01:54:40;98055.69;;;5.96;50.48
41040;BME280;48586;50.122;18.972;2023-04-26T01:56:47;98054.72;;;5.90;50.02
41040;BME280;48586;50.122;18.972;2023-04-26T01:58:52;98052.94;;;5.84;50.41
41040;BME280;48586;50.122;18.972;2023-04-26T02:01:05;98048.88;;;5.82;50.61
41040;BME280;48586;50.122;18.972;2023-04-26T02:03:11;98051.13;;;5.78;50.55
41040;BME280;48586;50.122;18.972;2023-04-26T02:05:16;98044.44;;;5.76;50.37
41040;BME280;48586;50.122;18.972;2023-04-26T02:07:20;98054.81;;;5.70;50.52
41040;BME280;48586;50.122;18.972;2023-04-26T02:09:26;98052.22;;;5.64;50.80
41040;BME280;48586;50.122;18.972;2023-04-26T02:11:31;98049.59;;;5.57;51.01
41040;BME280;48586;50.122;18.972;2023-04-26T02:13:38;98053.28;;;5.49;51.09
41040;BME280;48586;50.122;18.972;2023-04-26T02:15:45;98056.75;;;5.43;51.34
41040;BME280;48586;50.122;18.972;2023-04-26T02:17:50;98053.13;;;5.38;51.41
41040;BME280;48586;50.122;18.972;2023-04-26T02:19:55;98054.97;;;5.31;51.89
41040;BME280;48586;50.122;18.972;2023-04-26T02:21:59;98047.88;;;5.24;52.03
41040;BME280;48586;50.122;18.972;2023-04-26T02:24:05;98047.91;;;5.18;51.99
41040;BME280;48586;50.122;18.972;2023-04-26T02:26:09;98044.06;;;5.14;52.70
41040;BME280;48586;50.122;18.972;2023-04-26T02:28:15;98048.13;;;5.10;52.59
41040;BME280;48586;50.122;18.972;2023-04-26T02:30:23;98044.50;;;5.04;52.96
41040;BME280;48586;50.122;18.972;2023-04-26T02:32:27;98044.31;;;4.99;52.92
41040;BME280;48586;50.122;18.972;2023-04-26T02:34:31;98045.75;;;4.95;53.14
41040;BME280;48586;50.122;18.972;2023-04-26T02:36:36;98053.66;;;4.95;53.21
41040;BME280;48586;50.122;18.972;2023-04-26T02:38:41;98054.88;;;4.92;53.39
41040;BME280;48586;50.122;18.972;2023-04-26T02:40:45;98058.94;;;4.88;53.17
41040;BME280;48586;50.122;18.972;2023-04-26T02:42:51;98059.78;;;4.82;53.49
41040;BME280;48586;50.122;18.972;2023-04-26T02:44:56;98055.72;;;4.80;53.41
41040;BME280;48586;50.122;18.972;2023-04-26T02:47:02;98069.13;;;4.78;53.56
41040;BME280;48586;50.122;18.972;2023-04-26T02:49:07;98069.13;;;4.71;53.76
41040;BME280;48586;50.122;18.972;2023-04-26T02:51:12;98066.09;;;4.68;53.67
41040;BME280;48586;50.122;18.972;2023-04-26T02:53:17;98061.22;;;4.58;53.66
41040;BME280;48586;50.122;18.972;2023-04-26T02:55:22;98059.00;;;4.55;53.97
41040;BME280;48586;50.122;18.972;2023-04-26T02:57:26;98063.47;;;4.55;54.05
41040;BME280;48586;50.122;18.972;2023-04-26T02:59:31;98062.25;;;4.51;54.03
41040;BME280;48586;50.122;18.972;2023-04-26T03:01:36;98072.78;;;4.44;54.35
41040;BME280;48586;50.122;18.972;2023-04-26T03:03:42;98075.66;;;4.42;54.09
41040;BME280;48586;50.122;18.972;2023-04-26T03:05:46;98078.28;;;4.42;54.36
41040;BME280;48586;50.122;18.972;2023-04-26T03:07:51;98080.28;;;4.40;54.44
41040;BME280;48586;50.122;18.972;2023-04-26T03:09:55;98081.53;;;4.38;54.23
41040;BME280;48586;50.122;18.972;2023-04-26T03:12:00;98085.59;;;4.34;54.21
41040;BME280;48586;50.122;18.972;2023-04-26T03:14:05;98083.13;;;4.32;54.48
41040;BME280;48586;50.122;18.972;2023-04-26T03:16:10;98081.50;;;4.31;54.30
41040;BME280;48586;50.122;18.972;2023-04-26T03:18:14;98087.22;;;4.28;54.73
41040;BME280;48586;50.122;18.972;2023-04-26T03:20:22;98093.47;;;4.27;54.28
41040;BME280;48586;50.122;18.972;2023-04-26T03:22:26;98088.81;;;4.22;54.60
41040;BME280;48586;50.122;18.972;2023-04-26T03:24:30;98087.59;;;4.18;54.69
41040;BME280;48586;50.122;18.972;2023-04-26T03:26:35;98093.66;;;4.12;54.80
41040;BME280;48586;50.122;18.972;2023-04-26T03:28:40;98097.09;;;4.06;55.11
41040;BME280;48586;50.122;18.972;2023-04-26T03:30:44;98093.84;;;4.04;54.99
41040;BME280;48586;50.122;18.972;2023-04-26T03:32:50;98095.06;;;4.02;55.21
41040;BME280;48586;50.122;18.972;2023-04-26T03:34:55;98107.63;;;3.99;55.38
41040;BME280;48586;50.122;18.972;2023-04-26T03:37:01;98113.28;;;3.96;55.29
41040;BME280;48586;50.122;18.972;2023-04-26T03:39:07;98113.28;;;3.90;55.59
41040;BME280;48586;50.122;18.972;2023-04-26T03:41:11;98111.47;;;3.90;55.56
41040;BME280;48586;50.122;18.972;2023-04-26T03:43:16;98119.16;;;3.92;55.58
41040;BME280;48586;50.122;18.972;2023-04-26T03:45:21;98118.94;;;3.87;55.64
41040;BME280;48586;50.122;18.972;2023-04-26T03:47:26;98115.28;;;3.81;55.66
41040;BME280;48586;50.122;18.972;2023-04-26T03:49:30;98116.91;;;3.82;55.52
41040;BME280;48586;50.122;18.972;2023-04-26T03:51:36;98116.50;;;3.79;55.81
41040;BME280;48586;50.122;18.972;2023-04-26T03:53:42;98122.38;;;3.81;55.95
41040;BME280;48586;50.122;18.972;2023-04-26T03:55:49;98123.00;;;3.83;55.67
41040;BME280;48586;50.122;18.972;2023-04-26T03:57:53;98121.97;;;3.84;55.66
41040;BME280;48586;50.122;18.972;2023-04-26T03:59:58;98128.69;;;3.86;55.61
41040;BME280;48586;50.122;18.972;2023-04-26T04:02:02;98135.94;;;3.84;55.59
41040;BME280;48586;50.122;18.972;2023-04-26T04:04:07;98135.13;;;3.84;55.63
41040;BME280;48586;50.122;18.972;2023-04-26T04:06:14;98139.41;;;3.85;55.45
41040;BME280;48586;50.122;18.972;2023-04-26T04:08:18;98132.72;;;3.89;55.19
41040;BME280;48586;50.122;18.972;2023-04-26T04:10:26;98142.66;;;3.93;55.21
41040;BME280;48586;50.122;18.972;2023-04-26T04:12:31;98133.56;;;3.96;55.24
41040;BME280;48586;50.122;18.972;2023-04-26T04:14:35;98135.38;;;3.95;54.88
41040;BME280;48586;50.122;18.972;2023-04-26T04:16:41;98136.84;;;3.98;54.94
41040;BME280;48586;50.122;18.972;2023-04-26T04:18:46;98139.03;;;4.01;54.82
41040;BME280;48586;50.122;18.972;2023-04-26T04:20:50;98152.03;;;4.03;54.81
41040;BME280;48586;50.122;18.972;2023-04-26T04:22:55;98152.03;;;4.03;54.61
41040;BME280;48586;50.122;18.972;2023-04-26T04:25:02;98156.72;;;4.07;54.54
41040;BME280;48586;50.122;18.972;2023-04-26T04:27:09;98157.53;;;4.08;54.39
41040;BME280;48586;50.122;18.972;2023-04-26T04:29:16;98156.53;;;4.15;54.59
41040;BME280;48586;50.122;18.972;2023-04-26T04:31:21;98156.94;;;4.19;54.47
41040;BME280;48586;50.122;18.972;2023-04-26T04:33:25;98161.22;;;4.20;54.30
41040;BME280;48586;50.122;18.972;2023-04-26T04:35:32;98161.59;;;4.23;54.39
41040;BME280;48586;50.122;18.972;2023-04-26T04:37:39;98161.03;;;4.28;54.29
41040;BME280;48586;50.122;18.972;2023-04-26T04:39:43;98161.84;;;4.29;53.98
41040;BME280;48586;50.122;18.972;2023-04-26T04:41:49;98159.41;;;4.34;54.12
41040;BME280;48586;50.122;18.972;2023-04-26T04:43:57;98164.47;;;4.35;53.89
41040;BME280;48586;50.122;18.972;2023-04-26T04:46:02;98162.47;;;4.37;53.60
41040;BME280;48586;50.122;18.972;2023-04-26T04:48:06;98164.88;;;4.39;53.54
41040;BME280;48586;50.122;18.972;2023-04-26T04:50:12;98156.78;;;4.47;53.65
41040;BME280;48586;50.122;18.972;2023-04-26T04:52:17;98161.47;;;4.52;53.56
41040;BME280;48586;50.122;18.972;2023-04-26T04:54:23;98166.34;;;4.55;53.14
41040;BME280;48586;50.122;18.972;2023-04-26T04:56:28;98171.22;;;4.51;52.96
41040;BME280;48586;50.122;18.972;2023-04-26T04:58:33;98169.16;;;4.53;53.13
41040;BME280;48586;50.122;18.972;2023-04-26T05:00:41;98163.31;;;4.64;53.43
41040;BME280;48586;50.122;18.972;2023-04-26T05:02:54;98165.94;;;4.71;52.98
41040;BME280;48586;50.122;18.972;2023-04-26T05:05:01;98166.34;;;4.81;52.79
41040;BME280;48586;50.122;18.972;2023-04-26T05:07:07;98168.97;;;4.88;52.69
41040;BME280;48586;50.122;18.972;2023-04-26T05:09:14;98179.34;;;4.96;52.27
41040;BME280;48586;50.122;18.972;2023-04-26T05:11:20;98176.09;;;4.94;51.86
41040;BME280;48586;50.122;18.972;2023-04-26T05:13:26;98186.22;;;4.97;52.28
41040;BME280;48586;50.122;18.972;2023-04-26T05:15:31;98171.00;;;4.99;52.11
41040;BME280;48586;50.122;18.972;2023-04-26T05:17:40;98179.13;;;5.04;51.78
41040;BME280;48586;50.122;18.972;2023-04-26T05:19:57;98179.53;;;5.08;52.21
41040;BME280;48586;50.122;18.972;2023-04-26T05:22:06;98184.41;;;5.11;51.59
41040;BME280;48586;50.122;18.972;2023-04-26T05:24:12;98187.25;;;5.16;51.42
41040;BME280;48586;50.122;18.972;2023-04-26T05:26:18;98190.91;;;5.28;51.70
41040;BME280;48586;50.122;18.972;2023-04-26T05:28:24;98190.47;;;5.31;50.88
41040;BME280;48586;50.122;18.972;2023-04-26T05:30:47;98187.19;;;5.36;52.49
41040;BME280;48586;50.122;18.972;2023-04-26T05:33:06;98196.16;;;5.41;51.19
41040;BME280;48586;50.122;18.972;2023-04-26T05:35:18;98193.28;;;5.49;51.08
41040;BME280;48586;50.122;18.972;2023-04-26T05:37:25;98191.66;;;5.55;50.89
41040;BME280;48586;50.122;18.972;2023-04-26T05:39:30;98204.28;;;5.60;50.17
41040;BME280;48586;50.122;18.972;2023-04-26T05:41:35;98193.25;;;5.56;50.40
41040;BME280;48586;50.122;18.972;2023-04-26T05:43:40;98190.03;;;5.61;51.03
41040;BME280;48586;50.122;18.972;2023-04-26T05:45:52;98193.47;;;5.68;51.06
41040;BME280;48586;50.122;18.972;2023-04-26T05:47:59;98197.34;;;5.65;49.85
41040;BME280;48586;50.122;18.972;2023-04-26T05:50:07;98197.91;;;5.74;50.58
41040;BME280;48586;50.122;18.972;2023-04-26T05:52:13;98199.69;;;5.87;50.46
41040;BME280;48586;50.122;18.972;2023-04-26T05:54:18;98199.47;;;5.95;50.17
41040;BME280;48586;50.122;18.972;2023-04-26T05:56:23;98186.41;;;6.07;50.11
41040;BME280;48586;50.122;18.972;2023-04-26T05:58:28;98195.94;;;6.14;49.39
41040;BME280;48586;50.122;18.972;2023-04-26T06:00:34;98194.69;;;6.23;49.43
41040;BME280;48586;50.122;18.972;2023-04-26T06:02:41;98188.75;;;6.28;48.15
41040;BME280;48586;50.122;18.972;2023-04-26T06:04:51;98190.59;;;6.28;48.36
41040;BME280;48586;50.122;18.972;2023-04-26T06:06:59;98197.91;;;6.25;48.45
41040;BME280;48586;50.122;18.972;2023-04-26T06:09:03;98198.13;;;6.24;48.39
41040;BME280;48586;50.122;18.972;2023-04-26T06:11:10;98202.63;;;6.23;48.15
41040;BME280;48586;50.122;18.972;2023-04-26T06:13:14;98198.53;;;6.28;48.62
41040;BME280;48586;50.122;18.972;2023-04-26T06:15:19;98202.78;;;6.29;47.64
41040;BME280;48586;50.122;18.972;2023-04-26T06:17:24;98201.34;;;6.33;48.02
41040;BME280;48586;50.122;18.972;2023-04-26T06:19:29;98210.22;;;6.45;48.39
41040;BME280;48586;50.122;18.972;2023-04-26T06:21:35;98208.94;;;6.54;47.63
41040;BME280;48586;50.122;18.972;2023-04-26T06:23:43;98214.81;;;6.56;47.15
41040;BME280;48586;50.122;18.972;2023-04-26T06:25:47;98213.59;;;6.59;46.61
41040;BME280;48586;50.122;18.972;2023-04-26T06:27:52;98200.13;;;6.67;45.86
41040;BME280;48586;50.122;18.972;2023-04-26T06:30:01;98208.59;;;6.75;45.88
41040;BME280;48586;50.122;18.972;2023-04-26T06:32:08;98207.91;;;6.87;46.38
41040;BME280;48586;50.122;18.972;2023-04-26T06:34:14;98211.94;;;6.96;44.60
41040;BME280;48586;50.122;18.972;2023-04-26T06:36:19;98212.63;;;7.10;44.85
41040;BME280;48586;50.122;18.972;2023-04-26T06:38:25;98206.59;;;7.21;44.89
41040;BME280;48586;50.122;18.972;2023-04-26T06:40:34;98206.28;;;7.36;44.76
41040;BME280;48586;50.122;18.972;2023-04-26T06:42:40;98217.44;;;7.44;43.79
41040;BME280;48586;50.122;18.972;2023-04-26T06:44:52;98219.31;;;7.37;43.47
41040;BME280;48586;50.122;18.972;2023-04-26T06:46:57;98216.06;;;7.35;43.42
41040;BME280;48586;50.122;18.972;2023-04-26T06:49:03;98214.38;;;7.41;43.54
41040;BME280;48586;50.122;18.972;2023-04-26T06:51:08;98206.91;;;7.56;43.99
41040;BME280;48586;50.122;18.972;2023-04-26T06:53:13;98218.78;;;7.72;43.56
41040;BME280;48586;50.122;18.972;2023-04-26T06:55:19;98210.47;;;7.87;43.92
41040;BME280;48586;50.122;18.972;2023-04-26T06:57:26;98211.84;;;8.08;43.86
41040;BME280;48586;50.122;18.972;2023-04-26T06:59:32;98211.38;;;8.29;43.61
41040;BME280;48586;50.122;18.972;2023-04-26T07:01:38;98216.84;;;8.46;42.94
41040;BME280;48586;50.122;18.972;2023-04-26T07:03:43;98214.25;;;8.58;42.47
41040;BME280;48586;50.122;18.972;2023-04-26T07:05:48;98216.59;;;8.66;42.48
41040;BME280;48586;50.122;18.972;2023-04-26T07:07:54;98212.81;;;8.73;42.77
41040;BME280;48586;50.122;18.972;2023-04-26T07:09:59;98215.47;;;8.73;41.38
41040;BME280;48586;50.122;18.972;2023-04-26T07:12:04;98216.59;;;8.66;41.65
41040;BME280;48586;50.122;18.972;2023-04-26T07:14:12;98224.31;;;8.67;42.43
41040;BME280;48586;50.122;18.972;2023-04-26T07:16:17;98224.44;;;8.72;42.04
41040;BME280;48586;50.122;18.972;2023-04-26T07:18:23;98224.81;;;8.76;41.83
41040;BME280;48586;50.122;18.972;2023-04-26T07:20:29;98222.75;;;8.90;42.29
41040;BME280;48586;50.122;18.972;2023-04-26T07:22:35;98227.44;;;9.06;41.72
41040;BME280;48586;50.122;18.972;2023-04-26T07:24:40;98219.59;;;9.23;40.92
41040;BME280;48586;50.122;18.972;2023-04-26T07:26:46;98226.00;;;9.34;41.46
41040;BME280;48586;50.122;18.972;2023-04-26T07:28:50;98227.25;;;9.31;40.36
41040;BME280;48586;50.122;18.972;2023-04-26T07:30:59;98237.66;;;9.21;40.86
41040;BME280;48586;50.122;18.972;2023-04-26T07:33:06;98236.84;;;9.20;40.47
41040;BME280;48586;50.122;18.972;2023-04-26T07:35:10;98238.66;;;9.08;40.82
41040;BME280;48586;50.122;18.972;2023-04-26T07:37:17;98246.75;;;9.13;41.04
41040;BME280;48586;50.122;18.972;2023-04-26T07:39:23;98239.66;;;8.95;40.65
41040;BME280;48586;50.122;18.972;2023-04-26T07:41:28;98240.34;;;8.91;41.21
41040;BME280;48586;50.122;18.972;2023-04-26T07:43:34;98246.84;;;8.76;40.93
41040;BME280;48586;50.122;18.972;2023-04-26T07:45:39;98243.19;;;8.78;41.58
41040;BME280;48586;50.122;18.972;2023-04-26T07:47:47;98246.34;;;8.86;42.45
41040;BME280;48586;50.122;18.972;2023-04-26T07:49:52;98242.03;;;8.85;41.45
41040;BME280;48586;50.122;18.972;2023-04-26T07:51:59;98252.16;;;8.76;41.32
41040;BME280;48586;50.122;18.972;2023-04-26T07:54:03;98259.81;;;8.55;41.24
41040;BME280;48586;50.122;18.972;2023-04-26T07:56:09;98255.88;;;8.45;41.38
41040;BME280;48586;50.122;18.972;2023-04-26T07:58:14;98250.50;;;8.52;42.41
41040;BME280;48586;50.122;18.972;2023-04-26T08:00:19;98251.00;;;8.42;41.13
41040;BME280;48586;50.122;18.972;2023-04-26T08:02:25;98254.22;;;8.63;42.38
41040;BME280;48586;50.122;18.972;2023-04-26T08:04:34;98246.13;;;8.58;40.46
41040;BME280;48586;50.122;18.972;2023-04-26T08:06:38;98247.53;;;8.60;40.66
41040;BME280;48586;50.122;18.972;2023-04-26T08:08:46;98254.97;;;8.82;39.83
41040;BME280;48586;50.122;18.972;2023-04-26T08:10:51;98255.78;;;8.82;40.26
41040;BME280;48586;50.122;18.972;2023-04-26T08:12:57;98255.88;;;8.75;40.43
41040;BME280;48586;50.122;18.972;2023-04-26T08:15:04;98251.72;;;8.80;41.22
41040;BME280;48586;50.122;18.972;2023-04-26T08:17:12;98259.06;;;8.66;41.33
41040;BME280;48586;50.122;18.972;2023-04-26T08:19:16;98262.34;;;8.49;40.60
41040;BME280;48586;50.122;18.972;2023-04-26T08:21:25;98259.63;;;8.38;40.42
41040;BME280;48586;50.122;18.972;2023-04-26T08:23:32;98261.44;;;8.25;40.92
41040;BME280;48586;50.122;18.972;2023-04-26T08:25:38;98260.09;;;8.16;41.27
41040;BME280;48586;50.122;18.972;2023-04-26T08:27:43;98263.22;;;8.13;41.62
41040;BME280;48586;50.122;18.972;2023-04-26T08:29:50;98263.94;;;8.20;42.18
41040;BME280;48586;50.122;18.972;2023-04-26T08:31:54;98252.81;;;8.30;41.94
41040;BME280;48586;50.122;18.972;2023-04-26T08:34:02;98261.63;;;8.42;41.45
41040;BME280;48586;50.122;18.972;2023-04-26T08:36:10;98254.16;;;8.51;39.26
41040;BME280;48586;50.122;18.972;2023-04-26T08:38:18;98252.97;;;8.77;39.10
41040;BME280;48586;50.122;18.972;2023-04-26T08:40:24;98253.44;;;9.04;39.45
41040;BME280;48586;50.122;18.972;2023-04-26T08:42:30;98252.56;;;9.34;38.04
41040;BME280;48586;50.122;18.972;2023-04-26T08:44:40;98245.28;;;9.64;38.69
41040;BME280;48586;50.122;18.972;2023-04-26T08:46:56;98254.50;;;9.97;37.66
41040;BME280;48586;50.122;18.972;2023-04-26T08:49:24;98253.06;;;10.18;36.77
41040;BME280;48586;50.122;18.972;2023-04-26T08:51:39;98250.72;;;10.33;35.68
41040;BME280;48586;50.122;18.972;2023-04-26T08:53:50;98256.75;;;10.29;35.08
41040;BME280;48586;50.122;18.972;2023-04-26T08:56:01;98260.16;;;10.12;35.32
41040;BME280;48586;50.122;18.972;2023-04-26T08:58:11;98255.09;;;9.99;35.56
41040;BME280;48586;50.122;18.972;2023-04-26T09:00:17;98249.75;;;9.99;35.93
41040;BME280;48586;50.122;18.972;2023-04-26T09:02:24;98256.34;;;10.08;36.11
41040;BME280;48586;50.122;18.972;2023-04-26T09:04:29;98260.81;;;10.19;36.13
41040;BME280;48586;50.122;18.972;2023-04-26T09:06:35;98264.75;;;10.17;34.32
41040;BME280;48586;50.122;18.972;2023-04-26T09:08:43;98282.94;;;9.96;36.40
41040;BME280;48586;50.122;18.972;2023-04-26T09:10:52;98273.38;;;9.72;38.52
41040;BME280;48586;50.122;18.972;2023-04-26T09:12:59;98276.72;;;9.44;39.31
41040;BME280;48586;50.122;18.972;2023-04-26T09:15:06;98274.38;;;9.24;37.93
41040;BME280;48586;50.122;18.972;2023-04-26T09:17:25;98277.78;;;9.01;37.21
41040;BME280;48586;50.122;18.972;2023-04-26T09:19:35;98276.97;;;9.00;36.89
41040;BME280;48586;50.122;18.972;2023-04-26T09:21:44;98270.44;;;9.15;37.55
41040;BME280;48586;50.122;18.972;2023-04-26T09:24:00;98269.88;;;9.13;37.49
41040;BME280;48586;50.122;18.972;2023-04-26T09:26:22;98277.72;;;9.19;37.79
41040;BME280;48586;50.122;18.972;2023-04-26T09:28:27;98280.63;;;9.18;37.21
41040;BME280;48586;50.122;18.972;2023-04-26T09:30:38;98281.66;;;9.17;36.85
41040;BME280;48586;50.122;18.972;2023-04-26T09:32:49;98284.31;;;9.17;36.23
41040;BME280;48586;50.122;18.972;2023-04-26T09:34:57;98293.09;;;9.17;36.32
41040;BME280;48586;50.122;18.972;2023-04-26T09:37:02;98277.97;;;9.18;36.90
41040;BME280;48586;50.122;18.972;2023-04-26T09:39:07;98282.03;;;9.32;36.29
41040;BME280;48586;50.122;18.972;2023-04-26T09:41:14;98263.88;;;9.41;36.39
41040;BME280;48586;50.122;18.972;2023-04-26T09:43:21;98283.53;;;9.40;34.46
41040;BME280;48586;50.122;18.972;2023-04-26T09:45:28;98278.44;;;9.27;34.78
41040;BME280;48586;50.122;18.972;2023-04-26T09:47:35;98280.72;;;9.23;35.22
41040;BME280;48586;50.122;18.972;2023-04-26T09:49:45;98274.25;;;9.19;35.11
41040;BME280;48586;50.122;18.972;2023-04-26T09:52:02;98272.97;;;9.10;34.25
41040;BME280;48586;50.122;18.972;2023-04-26T09:54:09;98279.78;;;9.06;35.34
41040;BME280;48586;50.122;18.972;2023-04-26T09:56:16;98286.97;;;9.17;36.01
41040;BME280;48586;50.122;18.972;2023-04-26T09:58:24;98292.00;;;9.07;36.88
41040;BME280;48586;50.122;18.972;2023-04-26T10:00:31;98283.16;;;9.13;36.95
41040;BME280;48586;50.122;18.972;2023-04-26T10:02:37;98278.53;;;9.08;36.60
41040;BME280;48586;50.122;18.972;2023-04-26T10:04:45;98288.94;;;9.21;36.82
41040;BME280;48586;50.122;18.972;2023-04-26T10:06:52;98281.31;;;9.13;36.56
41040;BME280;48586;50.122;18.972;2023-04-26T10:08:58;98281.31;;;9.13;36.01
41040;BME280;48586;50.122;18.972;2023-04-26T10:11:08;98278.31;;;9.21;36.83
41040;BME280;48586;50.122;18.972;2023-04-26T10:13:15;98268.06;;;9.48;36.95
41040;BME280;48586;50.122;18.972;2023-04-26T10:15:24;98269.00;;;9.78;37.12
41040;BME280;48586;50.122;18.972;2023-04-26T10:17:30;98255.44;;;10.03;35.77
41040;BME280;48586;50.122;18.972;2023-04-26T10:19:37;98272.16;;;10.15;33.26
41040;BME280;48586;50.122;18.972;2023-04-26T10:21:46;98270.47;;;9.97;31.83
41040;BME280;48586;50.122;18.972;2023-04-26T10:23:55;98260.41;;;9.87;30.94
41040;BME280;48586;50.122;18.972;2023-04-26T10:26:03;98266.63;;;9.93;31.50
41040;BME280;48586;50.122;18.972;2023-04-26T10:28:08;98274.97;;;9.85;30.89
41040;BME280;48586;50.122;18.972;2023-04-26T10:30:14;98279.28;;;9.86;30.46
41040;BME280;48586;50.122;18.972;2023-04-26T10:32:25;98269.78;;;9.78;30.32
41040;BME280;48586;50.122;18.972;2023-04-26T10:34:31;98273.25;;;9.67;29.98
41040;BME280;48586;50.122;18.972;2023-04-26T10:37:05;98267.72;;;9.68;30.49
41040;BME280;48586;50.122;18.972;2023-04-26T10:39:20;98268.63;;;9.62;30.53
41040;BME280;48586;50.122;18.972;2023-04-26T10:41:36;98275.81;;;9.62;31.09
41040;BME280;48586;50.122;18.972;2023-04-26T10:43:42;98273.25;;;9.67;30.83
41040;BME280;48586;50.122;18.972;2023-04-26T10:45:48;98273.38;;;9.84;31.62
41040;BME280;48586;50.122;18.972;2023-04-26T10:48:16;98270.69;;;9.95;31.59
41040;BME280;48586;50.122;18.972;2023-04-26T10:50:22;98280.19;;;9.91;30.74
41040;BME280;48586;50.122;18.972;2023-04-26T10:52:28;98271.75;;;9.94;30.77
41040;BME280;48586;50.122;18.972;2023-04-26T10:54:48;98277.78;;;9.90;30.48
41040;BME280;48586;50.122;18.972;2023-04-26T10:56:53;98282.75;;;9.86;30.92
41040;BME280;48586;50.122;18.972;2023-04-26T10:59:10;98281.69;;;9.87;30.16
41040;BME280;48586;50.122;18.972;2023-04-26T11:01:18;98277.28;;;9.93;29.67
41040;BME280;48586;50.122;18.972;2023-04-26T11:03:29;98274.44;;;10.23;29.55
41040;BME280;48586;50.122;18.972;2023-04-26T11:05:47;98272.00;;;10.73;27.91
41040;BME280;48586;50.122;18.972;2023-04-26T11:08:03;98261.72;;;11.44;29.68
41040;BME280;48586;50.122;18.972;2023-04-26T11:10:21;98247.16;;;12.30;28.45
41040;BME280;48586;50.122;18.972;2023-04-26T11:12:28;98254.22;;;12.63;27.46